createdAt,value
2019-05-10T00:00:27.470Z,10.75
2019-05-10T00:03:16.651Z,10.69
2019-05-10T00:06:05.819Z,10.67
2019-05-10T00:08:45.418Z,10.59
2019-05-10T00:11:36.889Z,10.56
2019-05-10T00:14:27.887Z,10.54
2019-05-10T00:17:01.219Z,10.56
2019-05-10T00:19:32.459Z,10.57
2019-05-10T00:22:02.990Z,10.55
2019-05-10T00:24:33.865Z,10.53
2019-05-10T00:27:04.805Z,10.60
2019-05-10T00:29:35.661Z,10.66
2019-05-10T00:32:06.537Z,10.64
2019-05-10T00:34:37.475Z,10.62
2019-05-10T00:37:08.454Z,10.63
2019-05-10T00:39:39.305Z,10.64
2019-05-10T00:42:11.288Z,10.64
2019-05-10T00:44:42.349Z,10.71
2019-05-10T00:47:13.310Z,10.69
2019-05-10T00:49:44.473Z,10.68
2019-05-10T00:52:15.411Z,10.70
2019-05-10T00:54:46.489Z,10.71
2019-05-10T00:57:17.448Z,10.72
2019-05-10T00:59:48.303Z,10.73
2019-05-10T01:02:19.365Z,10.67
2019-05-10T01:04:50.201Z,10.71
2019-05-10T01:07:21.384Z,10.67
2019-05-10T01:09:52.323Z,10.78
2019-05-10T01:12:23.179Z,10.66
2019-05-10T01:14:54.138Z,10.65
2019-05-10T01:17:25.119Z,10.64
2019-05-10T01:19:57.012Z,10.69
2019-05-10T01:22:27.747Z,10.69
2019-05-10T01:24:58.810Z,10.72
2019-05-10T01:27:29.768Z,10.72
2019-05-10T01:30:00.726Z,10.64
2019-05-10T01:32:31.785Z,10.58
2019-05-10T01:35:02.625Z,10.54
2019-05-10T01:37:33.498Z,10.47
2019-05-10T01:40:06.360Z,10.50
2019-05-10T01:42:37.872Z,10.43
2019-05-10T01:45:09.337Z,10.52
2019-05-10T01:47:40.287Z,10.61
2019-05-10T01:50:11.462Z,10.58
2019-05-10T01:52:42.403Z,10.59
2019-05-10T01:55:13.681Z,10.60
2019-05-10T01:57:44.743Z,10.68
2019-05-10T02:00:16.011Z,10.64
2019-05-10T02:02:47.273Z,10.60
2019-05-10T02:05:18.437Z,10.57
2019-05-10T02:08:06.917Z,10.49
2019-05-10T03:33:30.867Z,11.79
2019-05-10T03:36:01.940Z,11.75
2019-05-10T03:38:32.898Z,11.59
2019-05-10T03:41:03.631Z,11.73
2019-05-10T03:43:34.716Z,11.61
2019-05-10T03:46:05.670Z,11.71
2019-05-10T03:48:36.714Z,11.72
2019-05-10T03:51:07.688Z,11.74
2019-05-10T03:53:38.529Z,11.78
2019-05-10T03:56:09.492Z,11.78
2019-05-10T03:58:40.462Z,11.90
2019-05-10T04:01:11.624Z,11.98
2019-05-10T04:03:42.583Z,12.04
2019-05-10T04:06:13.437Z,12.08
2019-05-10T04:08:44.634Z,12.06
2019-05-10T04:11:15.660Z,12.24
2019-05-10T04:13:46.722Z,12.47
2019-05-10T04:16:17.560Z,12.53
2019-05-10T04:18:48.545Z,12.52
2019-05-10T04:21:19.597Z,12.56
2019-05-10T04:23:50.558Z,12.70
2019-05-10T04:26:21.505Z,12.61
2019-05-10T04:28:52.472Z,12.88
2019-05-10T04:31:23.334Z,13.08
2019-05-10T04:33:55.314Z,13.25
2019-05-10T04:36:26.355Z,13.45
2019-05-10T04:38:57.310Z,13.17
2019-05-10T04:41:28.387Z,13.16
2019-05-10T04:43:59.357Z,13.19
2019-05-10T04:46:30.289Z,13.27
2019-05-10T04:49:01.371Z,13.20
2019-05-10T04:51:32.312Z,13.36
2019-05-10T04:54:03.369Z,13.32
2019-05-10T04:56:34.348Z,13.12
2019-05-10T04:59:05.302Z,12.93
2019-05-10T05:01:36.274Z,12.91
2019-05-10T05:04:07.325Z,12.89
2019-05-10T05:06:38.263Z,12.93
2019-05-10T05:09:09.238Z,12.95
2019-05-10T05:11:39.972Z,12.98
2019-05-10T05:14:11.052Z,12.95
2019-05-10T05:16:41.891Z,13.14
2019-05-10T05:19:13.538Z,12.91
2019-05-10T05:21:44.437Z,13.13
2019-05-10T05:24:16.930Z,13.13
2019-05-10T05:26:47.790Z,13.33
2019-05-10T05:29:18.747Z,13.73
2019-05-10T05:31:53.958Z,13.69
2019-05-10T05:34:23.014Z,14.30
2019-05-10T05:36:53.957Z,13.96
2019-05-10T05:39:24.928Z,14.03
2019-05-10T05:41:56.563Z,14.17
2019-05-10T05:44:28.112Z,14.32
2019-05-10T05:46:59.133Z,14.66
2019-05-10T05:49:30.148Z,14.72
2019-05-10T05:52:01.154Z,15.17
2019-05-10T05:54:32.020Z,14.92
2019-05-10T05:57:02.969Z,15.14
2019-05-10T05:59:33.930Z,15.29
2019-05-10T06:02:07.650Z,15.73
2019-05-10T06:04:40.854Z,16.31
2019-05-10T06:07:09.444Z,16.54
2019-05-10T06:09:40.520Z,16.38
2019-05-10T06:12:12.602Z,15.97
2019-05-10T06:14:49.592Z,15.97
2019-05-10T06:17:16.158Z,16.14
2019-05-10T06:19:47.098Z,15.97
2019-05-10T06:22:17.953Z,15.91
2019-05-10T06:24:52.469Z,16.90
2019-05-10T06:27:21.321Z,16.55
2019-05-10T06:29:53.814Z,16.08
2019-05-10T06:32:24.554Z,16.12
2019-05-10T06:34:56.428Z,15.70
2019-05-10T06:37:31.058Z,16.42
2019-05-10T06:39:59.792Z,15.74
2019-05-10T06:42:34.590Z,15.85
2019-05-10T06:45:04.889Z,16.19
2019-05-10T06:47:35.517Z,16.05
2019-05-10T06:50:07.616Z,16.40
2019-05-10T06:52:38.675Z,15.87
2019-05-10T06:55:09.839Z,15.85
2019-05-10T06:57:40.899Z,16.51
2019-05-10T07:00:14.382Z,16.85
2019-05-10T07:02:45.787Z,16.25
2019-05-10T07:05:16.928Z,16.39
2019-05-10T07:07:48.005Z,16.23
2019-05-10T07:10:24.841Z,16.40
2019-05-10T07:12:56.485Z,16.73
2019-05-10T07:15:23.646Z,17.11
2019-05-10T07:17:54.482Z,17.32
2019-05-10T07:20:29.449Z,17.71
2019-05-10T07:23:00.087Z,17.97
2019-05-10T07:25:31.770Z,18.06
2019-05-10T07:28:02.507Z,17.15
2019-05-10T07:30:41.144Z,17.12
2019-05-10T07:33:40.110Z,16.83
2019-05-10T07:36:14.705Z,17.31
2019-05-10T07:38:43.073Z,17.45
2019-05-10T07:41:19.494Z,17.53
2019-05-10T07:43:48.312Z,17.58
2019-05-10T07:46:18.712Z,18.28
2019-05-10T07:48:53.283Z,18.77
2019-05-10T07:51:22.732Z,18.47
2019-05-10T07:53:57.083Z,18.09
2019-05-10T07:56:27.150Z,18.56
2019-05-10T07:59:00.538Z,18.88
2019-05-10T08:01:32.845Z,18.46
2019-05-10T08:04:03.226Z,18.23
2019-05-10T08:06:44.386Z,18.42
2019-05-10T08:09:09.790Z,19.06
2019-05-10T08:11:40.551Z,19.16
2019-05-10T08:14:11.631Z,18.97
2019-05-10T08:16:42.587Z,19.13
2019-05-10T08:19:13.471Z,18.90
2019-05-10T08:21:48.719Z,18.45
2019-05-10T08:24:16.998Z,18.46
2019-05-10T08:26:47.836Z,18.11
2019-05-10T08:29:18.916Z,18.22
2019-05-10T08:31:53.612Z,17.86
2019-05-10T08:34:22.842Z,18.07
2019-05-10T08:36:53.835Z,18.11
2019-05-10T08:39:24.779Z,18.02
2019-05-10T08:42:03.961Z,18.51
2019-05-10T08:44:28.141Z,18.84
2019-05-10T08:46:58.792Z,18.83
2019-05-10T08:49:35.651Z,19.14
2019-05-10T08:52:02.939Z,18.87
2019-05-10T08:54:33.916Z,18.40
2019-05-10T08:57:05.452Z,18.05
2019-05-10T08:59:36.350Z,18.23
2019-05-10T09:02:07.409Z,18.60
2019-05-10T09:04:45.362Z,18.41
2019-05-10T09:07:11.894Z,17.96
2019-05-10T09:09:49.762Z,18.28
2019-05-10T09:12:14.923Z,17.82
2019-05-10T09:14:48.718Z,18.15
2019-05-10T09:17:25.298Z,17.76
2019-05-10T09:19:51.809Z,17.77
2019-05-10T09:22:24.016Z,17.97
2019-05-10T09:24:55.235Z,17.57
2019-05-10T09:27:29.121Z,17.81
2019-05-10T09:29:58.793Z,17.91
2019-05-10T09:32:32.978Z,18.08
2019-05-10T09:35:07.570Z,18.36
2019-05-10T09:37:35.122Z,18.67
2019-05-10T09:40:09.983Z,17.66
2019-05-10T09:42:43.193Z,17.44
2019-05-10T09:45:13.829Z,17.82
2019-05-10T09:47:44.703Z,17.88
2019-05-10T09:50:16.071Z,17.82
2019-05-10T09:52:46.605Z,17.95
2019-05-10T09:55:17.781Z,18.86
2019-05-10T09:57:48.743Z,18.93
2019-05-10T10:00:22.562Z,19.57
2019-05-10T10:03:01.197Z,18.77
2019-05-10T10:05:31.382Z,18.74
2019-05-10T10:08:13.745Z,19.60
2019-05-10T10:10:47.450Z,19.14
2019-05-10T10:13:35.689Z,19.49
2019-05-10T10:15:52.381Z,18.44
2019-05-10T10:18:25.318Z,18.65
2019-05-10T10:20:58.109Z,19.32
2019-05-10T10:23:33.113Z,20.23
2019-05-10T10:26:01.806Z,20.56
2019-05-10T10:28:36.204Z,20.26
2019-05-10T10:31:05.553Z,19.66
2019-05-10T10:33:37.945Z,19.33
2019-05-10T10:36:10.679Z,19.87
2019-05-10T10:38:45.236Z,21.14
2019-05-10T10:41:17.101Z,20.20
2019-05-10T10:43:48.451Z,19.75
2019-05-10T10:46:19.962Z,20.50
2019-05-10T10:48:51.593Z,20.25
2019-05-10T10:51:26.541Z,20.93
2019-05-10T10:53:58.035Z,19.10
2019-05-10T10:56:28.646Z,18.66
2019-05-10T10:58:59.708Z,18.12
2019-05-10T11:01:45.930Z,18.16
2019-05-10T11:04:07.937Z,18.35
2019-05-10T11:06:35.450Z,18.07
2019-05-10T11:09:09.475Z,18.23
2019-05-10T11:11:44.504Z,18.66
2019-05-10T11:14:13.232Z,18.76
2019-05-10T11:16:46.588Z,18.74
2019-05-10T11:19:16.461Z,18.83
2019-05-10T11:21:47.434Z,18.96
2019-05-10T11:24:22.392Z,18.40
2019-05-10T11:26:51.720Z,18.00
2019-05-10T11:29:27.749Z,18.96
2019-05-10T11:32:12.303Z,18.99
2019-05-10T11:34:29.328Z,20.31
2019-05-10T11:36:59.832Z,19.74
2019-05-10T11:39:33.233Z,19.93
2019-05-10T11:42:07.211Z,19.55
2019-05-10T11:44:35.468Z,20.68
2019-05-10T11:47:20.992Z,20.79
2019-05-10T11:49:40.610Z,20.31
2019-05-10T11:52:13.202Z,20.86
2019-05-10T11:54:43.991Z,20.97
2019-05-10T11:57:15.068Z,20.88
2019-05-10T11:59:46.035Z,20.34
2019-05-10T12:02:35.332Z,20.26
2019-05-10T12:04:52.589Z,21.26
2019-05-10T12:07:26.850Z,20.36
2019-05-10T12:10:03.315Z,20.30
2019-05-10T12:12:44.842Z,20.31
2019-05-10T12:14:58.715Z,20.62
2019-05-10T12:17:29.690Z,20.31
2019-05-10T12:20:02.489Z,20.35
2019-05-10T12:22:38.277Z,21.17
2019-05-10T12:25:28.308Z,21.61
2019-05-10T12:27:45.253Z,20.90
2019-05-10T12:30:15.819Z,21.45
2019-05-10T12:32:55.782Z,22.09
2019-05-10T12:35:17.649Z,20.99
2019-05-10T12:37:51.441Z,21.42
2019-05-10T12:40:24.141Z,21.51
2019-05-10T12:42:53.795Z,21.63
2019-05-10T12:45:24.856Z,22.33
2019-05-10T12:47:55.797Z,22.01
2019-05-10T12:50:26.669Z,21.15
2019-05-10T12:53:13.658Z,21.73
2019-05-10T12:55:30.019Z,21.36
2019-05-10T12:58:01.081Z,21.52
2019-05-10T13:00:31.920Z,20.39
2019-05-10T13:03:12.080Z,20.30
2019-05-10T13:05:50.223Z,20.10
2019-05-10T13:08:07.863Z,20.53
2019-05-10T13:10:43.574Z,21.30
2019-05-10T13:13:11.720Z,21.60
2019-05-10T13:15:42.801Z,21.27
2019-05-10T13:18:13.775Z,21.00
2019-05-10T13:20:44.614Z,21.15
2019-05-10T13:23:18.327Z,21.35
2019-05-10T13:25:48.075Z,21.64
2019-05-10T13:28:18.700Z,21.44
2019-05-10T13:30:49.572Z,21.43
2019-05-10T13:33:28.833Z,21.58
2019-05-10T13:35:56.492Z,21.27
2019-05-10T13:38:25.415Z,20.29
2019-05-10T13:40:56.374Z,20.66
2019-05-10T13:43:28.436Z,20.17
2019-05-10T13:45:59.416Z,20.22
2019-05-10T13:48:30.479Z,20.14
2019-05-10T13:51:01.335Z,21.25
2019-05-10T13:53:32.375Z,21.55
2019-05-10T13:56:03.365Z,21.75
2019-05-10T13:58:34.411Z,21.19
2019-05-10T14:01:06.840Z,20.26
2019-05-10T14:03:44.304Z,19.94
2019-05-10T14:06:10.030Z,19.09
2019-05-10T14:08:42.988Z,18.82
2019-05-10T14:11:13.277Z,18.59
2019-05-10T14:13:44.150Z,18.08
2019-05-10T14:16:19.801Z,17.87
2019-05-10T14:18:47.276Z,18.01
2019-05-10T14:21:18.865Z,17.71
2019-05-10T14:23:49.823Z,17.50
2019-05-10T14:26:20.770Z,17.50
2019-05-10T14:28:52.974Z,17.25
2019-05-10T14:31:24.336Z,17.35
2019-05-10T14:36:27.992Z,17.45
2019-05-10T14:38:58.949Z,17.16
2019-05-10T14:41:29.907Z,16.92
2019-05-10T14:44:00.865Z,16.65
2019-05-10T14:46:31.928Z,16.51
2019-05-10T14:49:09.953Z,16.54
2019-05-10T14:51:44.360Z,16.45
2019-05-10T14:54:08.971Z,16.41
2019-05-10T14:56:39.748Z,16.45
2019-05-10T14:59:10.707Z,16.44
2019-05-10T15:01:43.026Z,16.49
2019-05-10T15:04:20.069Z,16.41
2019-05-10T15:06:46.241Z,16.38
2019-05-10T15:09:21.678Z,16.32
2019-05-10T15:11:49.590Z,16.08
2019-05-10T15:14:20.533Z,16.08
2019-05-10T15:16:51.608Z,16.19
2019-05-10T15:19:25.886Z,16.19
2019-05-10T15:21:55.062Z,16.15
2019-05-10T15:24:26.106Z,16.24
2019-05-10T15:26:56.976Z,16.16
2019-05-10T15:29:28.021Z,16.19
2019-05-10T15:31:58.994Z,16.20
2019-05-10T15:34:30.054Z,16.17
2019-05-10T15:37:02.447Z,16.14
2019-05-10T15:39:33.403Z,16.12
2019-05-10T15:42:04.756Z,16.17
2019-05-10T15:44:35.422Z,16.06
2019-05-10T15:47:06.547Z,16.06
2019-05-10T15:49:37.647Z,16.06
2019-05-10T15:52:17.344Z,15.91
2019-05-10T15:54:44.656Z,15.88
2019-05-10T15:57:14.552Z,15.89
2019-05-10T15:59:50.558Z,15.88
2019-05-10T16:02:18.167Z,16.07
2019-05-10T16:04:49.128Z,16.27
2019-05-10T16:07:20.064Z,17.10
2019-05-10T16:09:54.783Z,17.69
2019-05-10T16:12:23.433Z,17.99
2019-05-10T16:14:54.270Z,17.51
2019-05-10T16:17:25.395Z,16.94
2019-05-10T16:19:59.456Z,16.68
2019-05-10T16:22:30.283Z,16.47
2019-05-10T16:25:02.841Z,16.00
2019-05-10T16:27:39.157Z,15.70
2019-05-10T16:30:11.866Z,15.60
2019-05-10T16:32:40.820Z,15.49
2019-05-10T16:35:14.720Z,15.18
2019-05-10T16:37:45.377Z,14.95
2019-05-10T16:40:16.552Z,14.87
2019-05-10T16:42:47.620Z,14.76
2019-05-10T16:45:18.987Z,14.66
2019-05-10T16:47:49.927Z,14.47
2019-05-10T16:50:25.963Z,14.30
2019-05-10T16:52:53.169Z,14.16
2019-05-10T16:55:24.246Z,14.08
2019-05-10T16:57:55.086Z,13.96
2019-05-10T17:00:26.396Z,13.79
2019-05-10T17:02:57.005Z,13.70
2019-05-10T17:05:27.959Z,13.63
2019-05-10T17:07:59.145Z,13.61
2019-05-10T17:10:32.932Z,13.55
2019-05-10T17:13:04.969Z,13.53
2019-05-10T17:15:39.698Z,13.38
2019-05-10T17:18:10.816Z,13.17
2019-05-10T17:20:40.479Z,13.08
2019-05-10T17:23:11.544Z,12.99
2019-05-10T17:25:43.485Z,12.90
2019-05-10T17:28:14.465Z,12.68
2019-05-10T17:30:45.336Z,12.56
2019-05-10T17:33:16.282Z,12.48
2019-05-10T17:35:47.336Z,12.52
2019-05-10T17:38:18.417Z,12.41
2019-05-10T17:40:50.057Z,12.33
2019-05-10T17:43:22.615Z,12.17
2019-05-10T17:45:53.335Z,12.09
2019-05-10T17:48:24.400Z,12.14
2019-05-10T17:50:55.360Z,12.07
2019-05-10T17:53:26.212Z,12.00
2019-05-10T17:56:02.338Z,11.98
2019-05-10T17:58:33.911Z,11.87
2019-05-10T18:01:02.161Z,11.79
2019-05-10T18:03:32.814Z,11.72
2019-05-10T18:06:04.053Z,11.65
2019-05-10T18:08:35.131Z,11.59
2019-05-10T18:11:06.308Z,11.43
2019-05-10T18:13:40.768Z,11.40
2019-05-10T18:16:10.985Z,11.32
2019-05-10T18:18:46.613Z,11.30
2019-05-10T18:21:16.032Z,11.24
2019-05-10T18:23:46.712Z,11.19
2019-05-10T18:26:17.552Z,11.14
2019-05-10T18:28:49.141Z,11.17
2019-05-10T18:31:19.774Z,11.36
2019-05-10T18:33:54.649Z,11.32
2019-05-10T18:36:24.792Z,11.22
2019-05-10T18:38:55.823Z,11.21
2019-05-10T18:41:26.903Z,11.22
2019-05-10T18:43:57.857Z,11.17
2019-05-10T18:46:28.815Z,11.08
2019-05-10T18:48:59.672Z,10.98
2019-05-10T18:51:30.529Z,10.89
2019-05-10T18:54:01.587Z,10.94
2019-05-10T18:56:33.234Z,10.91
2019-05-10T18:59:07.319Z,10.86
2019-05-10T19:01:38.723Z,10.77
2019-05-10T19:04:14.131Z,10.69
2019-05-10T19:06:44.070Z,10.68
2019-05-10T19:09:15.112Z,10.68
2019-05-10T19:11:46.016Z,10.69
2019-05-10T19:14:17.130Z,10.63
2019-05-10T19:16:47.991Z,10.60
2019-05-10T19:19:18.927Z,10.55
2019-05-10T19:21:49.901Z,10.54
2019-05-10T19:24:24.371Z,10.54
2019-05-10T19:26:53.456Z,10.59
2019-05-10T19:29:27.380Z,10.61
2019-05-10T19:31:56.909Z,10.65
2019-05-10T19:34:27.851Z,10.64
2019-05-10T19:36:58.806Z,10.71
2019-05-10T19:39:29.867Z,10.74
2019-05-10T19:42:03.802Z,10.74
2019-05-10T19:44:34.546Z,10.61
2019-05-10T19:47:11.006Z,10.44
2019-05-10T19:49:38.525Z,10.42
2019-05-10T19:52:09.585Z,10.31
2019-05-10T19:54:40.542Z,10.29
2019-05-10T19:57:16.375Z,10.29
2019-05-10T19:59:48.621Z,10.24
2019-05-10T20:02:16.795Z,10.21
2019-05-10T20:04:47.859Z,10.19
2019-05-10T20:07:18.708Z,10.17
2019-05-10T20:09:49.769Z,10.14
2019-05-10T20:12:21.999Z,10.14
2019-05-10T20:14:52.794Z,10.15
2019-05-10T20:17:23.854Z,10.17
2019-05-10T20:19:54.834Z,10.07
2019-05-10T20:22:25.688Z,10.06
2019-05-10T20:24:56.646Z,10.11
2019-05-10T20:27:27.584Z,10.11
2019-05-10T20:29:58.442Z,10.08
2019-05-10T20:32:29.503Z,10.15
2019-05-10T20:35:00.582Z,10.17
2019-05-10T20:37:31.624Z,10.25
2019-05-10T20:40:02.611Z,10.28
2019-05-10T20:42:33.458Z,10.27
2019-05-10T20:45:08.087Z,10.32
2019-05-10T20:47:37.298Z,10.46
2019-05-10T20:50:08.562Z,10.51
2019-05-10T20:52:39.254Z,10.45
2019-05-10T20:55:10.274Z,10.52
2019-05-10T20:57:41.352Z,10.50
2019-05-10T21:00:12.416Z,10.51
2019-05-10T21:02:43.457Z,10.52
2019-05-10T21:05:14.312Z,10.55
2019-05-10T21:07:45.391Z,10.53
2019-05-10T21:10:16.349Z,10.54
2019-05-10T21:12:47.186Z,10.53
2019-05-10T21:15:18.266Z,10.63
2019-05-10T21:17:49.225Z,10.84
2019-05-10T21:20:20.285Z,10.89
2019-05-10T21:22:51.245Z,11.04
2019-05-10T21:25:22.184Z,11.00
2019-05-10T21:27:53.160Z,11.06
2019-05-10T21:30:23.998Z,11.13
2019-05-10T21:32:55.076Z,11.25
2019-05-10T21:35:25.914Z,11.40
2019-05-10T21:37:56.788Z,11.56
2019-05-10T21:40:27.729Z,11.51
2019-05-10T21:42:58.685Z,11.52
2019-05-10T21:45:29.561Z,11.69
2019-05-10T21:48:00.618Z,11.69
2019-05-10T21:50:31.582Z,11.66
2019-05-10T21:53:02.335Z,11.71
2019-05-10T21:55:33.177Z,11.66
2019-05-10T21:58:03.843Z,11.68
2019-05-10T22:00:42.468Z,11.64
2019-05-10T22:03:13.427Z,11.69
2019-05-10T22:05:44.384Z,11.61
2019-05-10T22:08:15.327Z,11.61
2019-05-10T22:10:46.391Z,11.60
2019-05-10T22:13:17.040Z,11.61
2019-05-10T22:15:47.913Z,11.63
2019-05-10T22:18:18.972Z,11.65
2019-05-10T22:20:49.815Z,11.68
2019-05-10T22:23:20.892Z,11.69
2019-05-10T22:25:51.849Z,11.69
2019-05-10T22:28:22.686Z,11.79
2019-05-10T22:30:53.762Z,11.87
2019-05-10T22:33:24.707Z,11.88
2019-05-10T22:35:55.578Z,11.86
2019-05-10T22:38:26.640Z,11.83
2019-05-10T22:40:57.477Z,11.83
2019-05-10T22:43:28.441Z,11.90
2019-05-10T22:45:59.410Z,11.87
2019-05-10T22:48:30.370Z,11.96
2019-05-10T22:51:01.313Z,11.95
2019-05-10T22:53:32.270Z,11.99
2019-05-10T22:56:03.135Z,11.93
2019-05-10T22:58:34.185Z,11.97
2019-05-10T23:01:05.161Z,11.98
2019-05-10T23:03:36.225Z,11.93
2019-05-10T23:06:07.059Z,11.98
2019-05-10T23:08:38.025Z,11.97
2019-05-10T23:11:09.096Z,11.94
2019-05-10T23:13:40.054Z,11.92
2019-05-10T23:16:10.894Z,11.92
2019-05-10T23:18:41.973Z,12.03
2019-05-10T23:21:12.929Z,12.04
2019-05-10T23:23:43.788Z,12.06
2019-05-10T23:26:14.419Z,12.15
2019-05-10T23:28:45.498Z,12.10
2019-05-10T23:31:16.358Z,12.11
2019-05-10T23:33:47.416Z,12.17
2019-05-10T23:36:18.256Z,12.13
2019-05-10T23:38:52.241Z,12.13
2019-05-10T23:41:21.620Z,12.09
2019-05-10T23:43:52.476Z,12.05
2019-05-10T23:46:23.537Z,12.00
2019-05-10T23:48:54.610Z,11.99
2019-05-10T23:51:25.659Z,12.00
2019-05-10T23:53:56.701Z,12.03
2019-05-10T23:56:27.581Z,11.98
2019-05-10T23:58:58.633Z,11.98
